sensor_id;sensor_type;location;lat;lon;timestamp;P1;durP1;ratioP1;P2;durP2;ratioP2
23044;SDS011;11690;51.716;23.066;2023-12-07T00:00:29;36.97;;;16.73;;
23044;SDS011;11690;51.716;23.066;2023-12-07T00:03:16;39.80;;;16.90;;
23044;SDS011;11690;51.716;23.066;2023-12-07T00:05:44;44.13;;;16.67;;
23044;SDS011;11690;51.716;23.066;2023-12-07T00:08:10;55.07;;;19.77;;
23044;SDS011;11690;51.716;23.066;2023-12-07T00:10:38;38.43;;;16.80;;
23044;SDS011;11690;51.716;23.066;2023-12-07T00:13:05;40.10;;;16.53;;
23044;SDS011;11690;51.716;23.066;2023-12-07T00:15:32;39.13;;;17.03;;
23044;SDS011;11690;51.716;23.066;2023-12-07T00:17:59;39.50;;;17.13;;
23044;SDS011;11690;51.716;23.066;2023-12-07T00:20:27;41.57;;;17.43;;
23044;SDS011;11690;51.716;23.066;2023-12-07T00:22:54;43.53;;;18.03;;
23044;SDS011;11690;51.716;23.066;2023-12-07T00:25:22;42.07;;;17.33;;
23044;SDS011;11690;51.716;23.066;2023-12-07T00:27:49;39.23;;;16.63;;
23044;SDS011;11690;51.716;23.066;2023-12-07T00:30:16;43.87;;;18.57;;
23044;SDS011;11690;51.716;23.066;2023-12-07T00:32:43;45.70;;;18.17;;
23044;SDS011;11690;51.716;23.066;2023-12-07T00:35:10;43.30;;;17.33;;
23044;SDS011;11690;51.716;23.066;2023-12-07T00:37:37;46.40;;;18.70;;
23044;SDS011;11690;51.716;23.066;2023-12-07T00:40:05;38.53;;;17.00;;
23044;SDS011;11690;51.716;23.066;2023-12-07T00:42:32;50.13;;;19.70;;
23044;SDS011;11690;51.716;23.066;2023-12-07T00:44:59;41.73;;;18.07;;
23044;SDS011;11690;51.716;23.066;2023-12-07T00:47:27;54.83;;;19.43;;
23044;SDS011;11690;51.716;23.066;2023-12-07T00:49:54;43.63;;;17.13;;
23044;SDS011;11690;51.716;23.066;2023-12-07T00:52:21;44.17;;;17.83;;
23044;SDS011;11690;51.716;23.066;2023-12-07T00:54:49;52.23;;;19.33;;
23044;SDS011;11690;51.716;23.066;2023-12-07T00:57:16;44.33;;;18.33;;
23044;SDS011;11690;51.716;23.066;2023-12-07T00:59:43;51.20;;;19.50;;
23044;SDS011;11690;51.716;23.066;2023-12-07T01:02:10;42.43;;;18.83;;
23044;SDS011;11690;51.716;23.066;2023-12-07T01:04:37;47.03;;;19.57;;
23044;SDS011;11690;51.716;23.066;2023-12-07T01:07:04;38.83;;;17.63;;
23044;SDS011;11690;51.716;23.066;2023-12-07T01:09:33;42.00;;;18.77;;
23044;SDS011;11690;51.716;23.066;2023-12-07T01:12:00;44.17;;;19.90;;
23044;SDS011;11690;51.716;23.066;2023-12-07T01:14:27;41.47;;;18.97;;
23044;SDS011;11690;51.716;23.066;2023-12-07T01:16:54;45.57;;;18.60;;
23044;SDS011;11690;51.716;23.066;2023-12-07T01:19:21;45.77;;;19.23;;
23044;SDS011;11690;51.716;23.066;2023-12-07T01:21:48;43.97;;;20.10;;
23044;SDS011;11690;51.716;23.066;2023-12-07T01:24:15;51.93;;;19.50;;
23044;SDS011;11690;51.716;23.066;2023-12-07T01:26:43;41.27;;;19.27;;
23044;SDS011;11690;51.716;23.066;2023-12-07T01:29:10;45.27;;;19.97;;
23044;SDS011;11690;51.716;23.066;2023-12-07T01:31:37;45.17;;;20.00;;
23044;SDS011;11690;51.716;23.066;2023-12-07T01:34:04;64.27;;;21.43;;
23044;SDS011;11690;51.716;23.066;2023-12-07T01:36:31;44.37;;;18.50;;
23044;SDS011;11690;51.716;23.066;2023-12-07T01:38:58;55.87;;;22.17;;
23044;SDS011;11690;51.716;23.066;2023-12-07T01:41:26;51.27;;;21.53;;
23044;SDS011;11690;51.716;23.066;2023-12-07T01:43:54;52.10;;;20.77;;
23044;SDS011;11690;51.716;23.066;2023-12-07T01:46:20;52.63;;;20.43;;
23044;SDS011;11690;51.716;23.066;2023-12-07T01:48:48;50.50;;;20.93;;
23044;SDS011;11690;51.716;23.066;2023-12-07T01:51:16;46.40;;;20.67;;
23044;SDS011;11690;51.716;23.066;2023-12-07T01:53:44;44.40;;;20.27;;
23044;SDS011;11690;51.716;23.066;2023-12-07T01:56:11;47.97;;;20.37;;
23044;SDS011;11690;51.716;23.066;2023-12-07T01:58:39;46.77;;;19.07;;
23044;SDS011;11690;51.716;23.066;2023-12-07T02:01:06;46.93;;;21.90;;
23044;SDS011;11690;51.716;23.066;2023-12-07T02:03:34;50.60;;;20.97;;
23044;SDS011;11690;51.716;23.066;2023-12-07T02:06:01;53.90;;;21.87;;
23044;SDS011;11690;51.716;23.066;2023-12-07T02:08:28;46.97;;;20.10;;
23044;SDS011;11690;51.716;23.066;2023-12-07T02:10:55;47.87;;;19.83;;
23044;SDS011;11690;51.716;23.066;2023-12-07T02:13:22;44.03;;;19.07;;
23044;SDS011;11690;51.716;23.066;2023-12-07T02:15:49;54.47;;;21.50;;
23044;SDS011;11690;51.716;23.066;2023-12-07T02:18:32;51.97;;;20.53;;
23044;SDS011;11690;51.716;23.066;2023-12-07T02:21:18;47.30;;;20.93;;
23044;SDS011;11690;51.716;23.066;2023-12-07T02:23:51;48.07;;;20.93;;
23044;SDS011;11690;51.716;23.066;2023-12-07T02:26:20;49.53;;;21.43;;
23044;SDS011;11690;51.716;23.066;2023-12-07T02:28:48;54.73;;;22.40;;
23044;SDS011;11690;51.716;23.066;2023-12-07T02:31:15;51.43;;;21.93;;
23044;SDS011;11690;51.716;23.066;2023-12-07T02:33:43;55.53;;;21.93;;
23044;SDS011;11690;51.716;23.066;2023-12-07T02:36:10;50.73;;;21.73;;
23044;SDS011;11690;51.716;23.066;2023-12-07T02:38:38;48.63;;;20.00;;
23044;SDS011;11690;51.716;23.066;2023-12-07T02:41:06;58.83;;;21.93;;
23044;SDS011;11690;51.716;23.066;2023-12-07T02:43:34;48.57;;;21.43;;
23044;SDS011;11690;51.716;23.066;2023-12-07T02:46:01;45.83;;;20.77;;
23044;SDS011;11690;51.716;23.066;2023-12-07T02:48:29;53.90;;;22.13;;
23044;SDS011;11690;51.716;23.066;2023-12-07T02:50:57;54.93;;;21.17;;
23044;SDS011;11690;51.716;23.066;2023-12-07T02:53:24;48.63;;;22.17;;
23044;SDS011;11690;51.716;23.066;2023-12-07T02:55:51;48.77;;;21.83;;
23044;SDS011;11690;51.716;23.066;2023-12-07T02:58:18;56.30;;;22.93;;
23044;SDS011;11690;51.716;23.066;2023-12-07T03:00:45;51.47;;;20.97;;
23044;SDS011;11690;51.716;23.066;2023-12-07T03:03:13;47.47;;;21.20;;
23044;SDS011;11690;51.716;23.066;2023-12-07T03:05:40;53.43;;;21.60;;
23044;SDS011;11690;51.716;23.066;2023-12-07T03:08:07;52.97;;;21.97;;
23044;SDS011;11690;51.716;23.066;2023-12-07T03:10:34;52.97;;;22.87;;
23044;SDS011;11690;51.716;23.066;2023-12-07T03:13:01;48.87;;;20.47;;
23044;SDS011;11690;51.716;23.066;2023-12-07T03:15:29;47.37;;;21.70;;
23044;SDS011;11690;51.716;23.066;2023-12-07T03:17:56;51.87;;;21.57;;
23044;SDS011;11690;51.716;23.066;2023-12-07T03:20:23;50.23;;;22.40;;
23044;SDS011;11690;51.716;23.066;2023-12-07T03:22:50;44.17;;;20.17;;
23044;SDS011;11690;51.716;23.066;2023-12-07T03:25:17;50.07;;;21.20;;
23044;SDS011;11690;51.716;23.066;2023-12-07T03:27:45;45.40;;;20.47;;
23044;SDS011;11690;51.716;23.066;2023-12-07T03:30:12;54.63;;;22.80;;
23044;SDS011;11690;51.716;23.066;2023-12-07T03:32:40;55.67;;;21.80;;
23044;SDS011;11690;51.716;23.066;2023-12-07T03:35:07;50.20;;;21.43;;
23044;SDS011;11690;51.716;23.066;2023-12-07T03:37:34;48.60;;;22.07;;
23044;SDS011;11690;51.716;23.066;2023-12-07T03:40:01;54.77;;;20.90;;
23044;SDS011;11690;51.716;23.066;2023-12-07T03:42:31;51.60;;;21.67;;
23044;SDS011;11690;51.716;23.066;2023-12-07T03:45:18;55.67;;;22.27;;
23044;SDS011;11690;51.716;23.066;2023-12-07T03:47:45;44.27;;;21.50;;
23044;SDS011;11690;51.716;23.066;2023-12-07T03:50:12;50.73;;;21.27;;
23044;SDS011;11690;51.716;23.066;2023-12-07T03:52:39;43.53;;;20.70;;
23044;SDS011;11690;51.716;23.066;2023-12-07T03:55:07;43.50;;;20.73;;
23044;SDS011;11690;51.716;23.066;2023-12-07T03:57:35;44.10;;;19.90;;
23044;SDS011;11690;51.716;23.066;2023-12-07T04:00:02;46.80;;;21.77;;
23044;SDS011;11690;51.716;23.066;2023-12-07T04:02:32;47.00;;;20.83;;
23044;SDS011;11690;51.716;23.066;2023-12-07T04:04:59;44.60;;;21.57;;
23044;SDS011;11690;51.716;23.066;2023-12-07T04:07:28;49.80;;;21.03;;
23044;SDS011;11690;51.716;23.066;2023-12-07T04:09:58;43.47;;;20.93;;
23044;SDS011;11690;51.716;23.066;2023-12-07T04:12:26;54.83;;;21.80;;
23044;SDS011;11690;51.716;23.066;2023-12-07T04:14:53;51.07;;;20.23;;
23044;SDS011;11690;51.716;23.066;2023-12-07T04:17:20;48.17;;;21.97;;
23044;SDS011;11690;51.716;23.066;2023-12-07T04:19:48;53.30;;;22.10;;
23044;SDS011;11690;51.716;23.066;2023-12-07T04:22:15;49.57;;;21.37;;
23044;SDS011;11690;51.716;23.066;2023-12-07T04:24:42;47.53;;;20.20;;
23044;SDS011;11690;51.716;23.066;2023-12-07T04:27:10;47.13;;;21.27;;
23044;SDS011;11690;51.716;23.066;2023-12-07T04:29:37;43.63;;;21.13;;
23044;SDS011;11690;51.716;23.066;2023-12-07T04:32:04;48.13;;;20.63;;
23044;SDS011;11690;51.716;23.066;2023-12-07T04:34:32;46.23;;;20.53;;
23044;SDS011;11690;51.716;23.066;2023-12-07T04:37:00;51.10;;;22.67;;
23044;SDS011;11690;51.716;23.066;2023-12-07T04:39:27;44.13;;;21.17;;
23044;SDS011;11690;51.716;23.066;2023-12-07T04:41:55;50.83;;;22.57;;
23044;SDS011;11690;51.716;23.066;2023-12-07T04:44:22;53.00;;;21.97;;
23044;SDS011;11690;51.716;23.066;2023-12-07T04:46:51;52.50;;;21.67;;
23044;SDS011;11690;51.716;23.066;2023-12-07T04:49:18;48.67;;;21.73;;
23044;SDS011;11690;51.716;23.066;2023-12-07T04:51:46;46.80;;;20.97;;
23044;SDS011;11690;51.716;23.066;2023-12-07T04:54:13;47.00;;;22.37;;
23044;SDS011;11690;51.716;23.066;2023-12-07T04:56:46;50.00;;;22.10;;
23044;SDS011;11690;51.716;23.066;2023-12-07T04:59:13;47.90;;;21.43;;
23044;SDS011;11690;51.716;23.066;2023-12-07T05:01:40;45.77;;;20.50;;
23044;SDS011;11690;51.716;23.066;2023-12-07T05:04:08;51.00;;;22.70;;
23044;SDS011;11690;51.716;23.066;2023-12-07T05:06:35;47.33;;;20.37;;
23044;SDS011;11690;51.716;23.066;2023-12-07T05:09:02;50.40;;;22.57;;
23044;SDS011;11690;51.716;23.066;2023-12-07T05:11:30;53.30;;;21.50;;
23044;SDS011;11690;51.716;23.066;2023-12-07T05:13:57;51.87;;;21.87;;
23044;SDS011;11690;51.716;23.066;2023-12-07T05:16:24;50.03;;;23.37;;
23044;SDS011;11690;51.716;23.066;2023-12-07T05:18:51;53.00;;;21.97;;
23044;SDS011;11690;51.716;23.066;2023-12-07T05:21:19;52.03;;;22.70;;
23044;SDS011;11690;51.716;23.066;2023-12-07T05:23:46;50.57;;;21.27;;
23044;SDS011;11690;51.716;23.066;2023-12-07T05:26:13;54.83;;;22.73;;
23044;SDS011;11690;51.716;23.066;2023-12-07T05:28:41;59.53;;;24.47;;
23044;SDS011;11690;51.716;23.066;2023-12-07T05:31:08;57.73;;;23.37;;
23044;SDS011;11690;51.716;23.066;2023-12-07T05:33:36;68.73;;;24.93;;
23044;SDS011;11690;51.716;23.066;2023-12-07T05:36:03;47.10;;;22.87;;
23044;SDS011;11690;51.716;23.066;2023-12-07T05:38:30;54.93;;;23.27;;
23044;SDS011;11690;51.716;23.066;2023-12-07T05:40:57;62.90;;;24.83;;
23044;SDS011;11690;51.716;23.066;2023-12-07T05:43:24;56.40;;;24.53;;
23044;SDS011;11690;51.716;23.066;2023-12-07T05:45:52;61.03;;;23.90;;
23044;SDS011;11690;51.716;23.066;2023-12-07T05:48:19;52.77;;;23.20;;
23044;SDS011;11690;51.716;23.066;2023-12-07T05:50:47;53.90;;;23.40;;
23044;SDS011;11690;51.716;23.066;2023-12-07T05:53:13;49.87;;;22.77;;
23044;SDS011;11690;51.716;23.066;2023-12-07T05:55:41;55.07;;;23.73;;
23044;SDS011;11690;51.716;23.066;2023-12-07T05:58:08;53.07;;;22.57;;
23044;SDS011;11690;51.716;23.066;2023-12-07T06:00:35;54.93;;;22.90;;
23044;SDS011;11690;51.716;23.066;2023-12-07T06:03:04;49.53;;;21.83;;
23044;SDS011;11690;51.716;23.066;2023-12-07T06:05:32;59.67;;;22.17;;
23044;SDS011;11690;51.716;23.066;2023-12-07T06:07:59;52.40;;;23.43;;
23044;SDS011;11690;51.716;23.066;2023-12-07T06:10:27;50.50;;;22.17;;
23044;SDS011;11690;51.716;23.066;2023-12-07T06:12:54;52.57;;;22.00;;
23044;SDS011;11690;51.716;23.066;2023-12-07T06:15:23;52.90;;;23.73;;
23044;SDS011;11690;51.716;23.066;2023-12-07T06:17:50;54.87;;;23.10;;
23044;SDS011;11690;51.716;23.066;2023-12-07T06:20:18;46.37;;;21.43;;
23044;SDS011;11690;51.716;23.066;2023-12-07T06:22:45;53.57;;;22.30;;
23044;SDS011;11690;51.716;23.066;2023-12-07T06:25:12;57.83;;;22.83;;
23044;SDS011;11690;51.716;23.066;2023-12-07T06:27:39;49.17;;;21.30;;
23044;SDS011;11690;51.716;23.066;2023-12-07T06:30:07;47.17;;;21.03;;
23044;SDS011;11690;51.716;23.066;2023-12-07T06:32:34;51.90;;;22.37;;
23044;SDS011;11690;51.716;23.066;2023-12-07T06:35:02;47.03;;;21.93;;
23044;SDS011;11690;51.716;23.066;2023-12-07T06:37:31;51.77;;;22.93;;
23044;SDS011;11690;51.716;23.066;2023-12-07T06:39:59;47.37;;;22.53;;
23044;SDS011;11690;51.716;23.066;2023-12-07T06:42:26;46.80;;;20.63;;
23044;SDS011;11690;51.716;23.066;2023-12-07T06:44:54;60.53;;;26.10;;
23044;SDS011;11690;51.716;23.066;2023-12-07T06:47:21;89.57;;;30.63;;
23044;SDS011;11690;51.716;23.066;2023-12-07T06:49:48;66.83;;;25.90;;
23044;SDS011;11690;51.716;23.066;2023-12-07T06:52:19;61.63;;;23.53;;
23044;SDS011;11690;51.716;23.066;2023-12-07T06:54:46;60.83;;;24.50;;
23044;SDS011;11690;51.716;23.066;2023-12-07T06:57:13;66.47;;;25.07;;
23044;SDS011;11690;51.716;23.066;2023-12-07T06:59:40;102.33;;;37.80;;
23044;SDS011;11690;51.716;23.066;2023-12-07T07:02:07;90.00;;;41.37;;
23044;SDS011;11690;51.716;23.066;2023-12-07T07:04:35;160.43;;;63.37;;
23044;SDS011;11690;51.716;23.066;2023-12-07T07:07:02;256.73;;;109.53;;
23044;SDS011;11690;51.716;23.066;2023-12-07T07:09:29;59.70;;;28.60;;
23044;SDS011;11690;51.716;23.066;2023-12-07T07:11:56;68.97;;;31.73;;
23044;SDS011;11690;51.716;23.066;2023-12-07T07:14:24;89.10;;;44.03;;
23044;SDS011;11690;51.716;23.066;2023-12-07T07:16:51;59.07;;;30.10;;
23044;SDS011;11690;51.716;23.066;2023-12-07T07:19:19;54.43;;;27.13;;
23044;SDS011;11690;51.716;23.066;2023-12-07T07:21:46;56.10;;;24.67;;
23044;SDS011;11690;51.716;23.066;2023-12-07T07:24:14;62.73;;;25.43;;
23044;SDS011;11690;51.716;23.066;2023-12-07T07:26:41;45.33;;;20.03;;
23044;SDS011;11690;51.716;23.066;2023-12-07T07:29:08;57.63;;;22.03;;
23044;SDS011;11690;51.716;23.066;2023-12-07T07:31:35;63.47;;;27.93;;
23044;SDS011;11690;51.716;23.066;2023-12-07T07:34:03;85.27;;;32.70;;
23044;SDS011;11690;51.716;23.066;2023-12-07T07:36:31;140.20;;;39.53;;
23044;SDS011;11690;51.716;23.066;2023-12-07T07:38:59;94.43;;;31.60;;
23044;SDS011;11690;51.716;23.066;2023-12-07T07:41:26;162.30;;;49.20;;
23044;SDS011;11690;51.716;23.066;2023-12-07T07:43:53;188.03;;;70.20;;
23044;SDS011;11690;51.716;23.066;2023-12-07T07:46:20;234.03;;;82.80;;
23044;SDS011;11690;51.716;23.066;2023-12-07T07:48:47;167.13;;;55.60;;
23044;SDS011;11690;51.716;23.066;2023-12-07T07:51:15;227.17;;;71.63;;
23044;SDS011;11690;51.716;23.066;2023-12-07T07:53:42;174.97;;;53.77;;
23044;SDS011;11690;51.716;23.066;2023-12-07T07:56:10;191.03;;;63.27;;
23044;SDS011;11690;51.716;23.066;2023-12-07T07:58:37;173.67;;;53.83;;
23044;SDS011;11690;51.716;23.066;2023-12-07T08:01:04;100.77;;;34.43;;
23044;SDS011;11690;51.716;23.066;2023-12-07T08:03:32;140.90;;;46.33;;
23044;SDS011;11690;51.716;23.066;2023-12-07T08:05:59;138.33;;;47.50;;
23044;SDS011;11690;51.716;23.066;2023-12-07T08:08:26;152.27;;;55.50;;
23044;SDS011;11690;51.716;23.066;2023-12-07T08:10:53;186.23;;;61.50;;
23044;SDS011;11690;51.716;23.066;2023-12-07T08:13:22;159.73;;;55.90;;
23044;SDS011;11690;51.716;23.066;2023-12-07T08:15:50;86.07;;;35.63;;
23044;SDS011;11690;51.716;23.066;2023-12-07T08:18:19;95.30;;;39.10;;
23044;SDS011;11690;51.716;23.066;2023-12-07T08:20:46;72.37;;;31.93;;
23044;SDS011;11690;51.716;23.066;2023-12-07T08:23:13;69.30;;;30.37;;
23044;SDS011;11690;51.716;23.066;2023-12-07T08:25:40;65.07;;;29.13;;
23044;SDS011;11690;51.716;23.066;2023-12-07T08:28:08;45.93;;;21.03;;
23044;SDS011;11690;51.716;23.066;2023-12-07T08:30:36;73.07;;;30.07;;
23044;SDS011;11690;51.716;23.066;2023-12-07T08:33:03;50.80;;;23.97;;
23044;SDS011;11690;51.716;23.066;2023-12-07T08:35:30;50.10;;;24.00;;
23044;SDS011;11690;51.716;23.066;2023-12-07T08:37:57;53.87;;;24.27;;
23044;SDS011;11690;51.716;23.066;2023-12-07T08:40:24;47.23;;;21.90;;
23044;SDS011;11690;51.716;23.066;2023-12-07T08:42:54;46.63;;;21.50;;
23044;SDS011;11690;51.716;23.066;2023-12-07T08:45:21;44.87;;;20.10;;
23044;SDS011;11690;51.716;23.066;2023-12-07T08:47:49;57.50;;;23.90;;
23044;SDS011;11690;51.716;23.066;2023-12-07T08:50:16;38.07;;;19.37;;
23044;SDS011;11690;51.716;23.066;2023-12-07T08:52:43;50.07;;;23.93;;
23044;SDS011;11690;51.716;23.066;2023-12-07T08:55:19;34.43;;;18.43;;
23044;SDS011;11690;51.716;23.066;2023-12-07T08:57:46;40.83;;;18.97;;
23044;SDS011;11690;51.716;23.066;2023-12-07T09:00:14;47.47;;;21.50;;
23044;SDS011;11690;51.716;23.066;2023-12-07T09:02:41;46.17;;;20.20;;
23044;SDS011;11690;51.716;23.066;2023-12-07T09:05:14;37.20;;;19.30;;
23044;SDS011;11690;51.716;23.066;2023-12-07T09:07:42;40.23;;;18.97;;
23044;SDS011;11690;51.716;23.066;2023-12-07T09:10:09;42.10;;;19.83;;
23044;SDS011;11690;51.716;23.066;2023-12-07T09:12:37;46.17;;;20.80;;
23044;SDS011;11690;51.716;23.066;2023-12-07T09:15:06;39.93;;;18.77;;
23044;SDS011;11690;51.716;23.066;2023-12-07T09:17:38;37.73;;;18.97;;
23044;SDS011;11690;51.716;23.066;2023-12-07T09:20:09;41.20;;;19.90;;
23044;SDS011;11690;51.716;23.066;2023-12-07T09:22:45;42.13;;;19.53;;
23044;SDS011;11690;51.716;23.066;2023-12-07T09:25:13;37.73;;;19.50;;
23044;SDS011;11690;51.716;23.066;2023-12-07T09:27:43;41.63;;;19.30;;
23044;SDS011;11690;51.716;23.066;2023-12-07T09:33:03;36.87;;;18.70;;
23044;SDS011;11690;51.716;23.066;2023-12-07T09:35:30;35.00;;;16.53;;
23044;SDS011;11690;51.716;23.066;2023-12-07T09:37:58;46.77;;;19.47;;
23044;SDS011;11690;51.716;23.066;2023-12-07T09:40:25;36.83;;;18.00;;
23044;SDS011;11690;51.716;23.066;2023-12-07T09:42:54;45.43;;;20.63;;
23044;SDS011;11690;51.716;23.066;2023-12-07T09:45:21;40.27;;;19.23;;
23044;SDS011;11690;51.716;23.066;2023-12-07T09:47:52;40.07;;;17.43;;
23044;SDS011;11690;51.716;23.066;2023-12-07T09:50:20;39.83;;;19.43;;
23044;SDS011;11690;51.716;23.066;2023-12-07T09:52:49;37.97;;;17.50;;
23044;SDS011;11690;51.716;23.066;2023-12-07T09:55:30;38.77;;;18.43;;
23044;SDS011;11690;51.716;23.066;2023-12-07T09:57:58;36.43;;;18.57;;
23044;SDS011;11690;51.716;23.066;2023-12-07T10:00:25;35.47;;;18.90;;
23044;SDS011;11690;51.716;23.066;2023-12-07T10:02:53;47.63;;;21.63;;
23044;SDS011;11690;51.716;23.066;2023-12-07T10:05:21;173.43;;;71.70;;
23044;SDS011;11690;51.716;23.066;2023-12-07T10:07:49;79.57;;;35.57;;
23044;SDS011;11690;51.716;23.066;2023-12-07T10:10:17;104.07;;;49.87;;
23044;SDS011;11690;51.716;23.066;2023-12-07T10:12:47;51.53;;;25.07;;
23044;SDS011;11690;51.716;23.066;2023-12-07T10:15:18;55.80;;;25.20;;
23044;SDS011;11690;51.716;23.066;2023-12-07T10:17:48;45.83;;;21.93;;
23044;SDS011;11690;51.716;23.066;2023-12-07T10:20:19;79.80;;;32.67;;
23044;SDS011;11690;51.716;23.066;2023-12-07T10:23:02;146.27;;;48.70;;
23044;SDS011;11690;51.716;23.066;2023-12-07T10:25:31;124.03;;;42.87;;
23044;SDS011;11690;51.716;23.066;2023-12-07T10:27:59;222.67;;;76.67;;
23044;SDS011;11690;51.716;23.066;2023-12-07T10:30:27;223.23;;;68.00;;
23044;SDS011;11690;51.716;23.066;2023-12-07T10:32:54;76.37;;;28.70;;
23044;SDS011;11690;51.716;23.066;2023-12-07T10:35:21;124.30;;;41.70;;
23044;SDS011;11690;51.716;23.066;2023-12-07T10:37:48;54.67;;;22.87;;
23044;SDS011;11690;51.716;23.066;2023-12-07T10:40:16;101.57;;;36.37;;
23044;SDS011;11690;51.716;23.066;2023-12-07T10:42:43;75.77;;;29.87;;
23044;SDS011;11690;51.716;23.066;2023-12-07T10:45:14;62.50;;;25.00;;
23044;SDS011;11690;51.716;23.066;2023-12-07T10:47:43;92.37;;;36.07;;
23044;SDS011;11690;51.716;23.066;2023-12-07T10:50:11;60.37;;;23.70;;
23044;SDS011;11690;51.716;23.066;2023-12-07T10:52:44;51.93;;;22.47;;
23044;SDS011;11690;51.716;23.066;2023-12-07T10:55:16;67.07;;;26.60;;
23044;SDS011;11690;51.716;23.066;2023-12-07T10:57:45;52.00;;;21.90;;
23044;SDS011;11690;51.716;23.066;2023-12-07T11:00:13;218.87;;;45.23;;
23044;SDS011;11690;51.716;23.066;2023-12-07T11:02:41;176.63;;;38.87;;
23044;SDS011;11690;51.716;23.066;2023-12-07T11:05:09;323.13;;;75.30;;
23044;SDS011;11690;51.716;23.066;2023-12-07T11:10:30;175.47;;;50.23;;
23044;SDS011;11690;51.716;23.066;2023-12-07T11:15:39;147.23;;;41.83;;
23044;SDS011;11690;51.716;23.066;2023-12-07T11:18:07;218.40;;;53.23;;
23044;SDS011;11690;51.716;23.066;2023-12-07T11:20:41;51.37;;;19.47;;
23044;SDS011;11690;51.716;23.066;2023-12-07T11:23:11;55.77;;;20.50;;
23044;SDS011;11690;51.716;23.066;2023-12-07T11:25:38;36.37;;;17.20;;
23044;SDS011;11690;51.716;23.066;2023-12-07T11:28:06;89.37;;;28.77;;
23044;SDS011;11690;51.716;23.066;2023-12-07T11:30:36;79.63;;;28.03;;
23044;SDS011;11690;51.716;23.066;2023-12-07T11:33:04;125.53;;;41.20;;
23044;SDS011;11690;51.716;23.066;2023-12-07T11:35:32;46.50;;;20.10;;
23044;SDS011;11690;51.716;23.066;2023-12-07T11:40:29;59.30;;;23.67;;
23044;SDS011;11690;51.716;23.066;2023-12-07T11:43:01;88.60;;;29.30;;
23044;SDS011;11690;51.716;23.066;2023-12-07T11:45:38;33.40;;;15.27;;
23044;SDS011;11690;51.716;23.066;2023-12-07T11:48:10;27.63;;;14.87;;
23044;SDS011;11690;51.716;23.066;2023-12-07T11:51:02;28.73;;;14.33;;
23044;SDS011;11690;51.716;23.066;2023-12-07T11:53:35;36.43;;;16.97;;
23044;SDS011;11690;51.716;23.066;2023-12-07T11:56:07;31.37;;;16.13;;
23044;SDS011;11690;51.716;23.066;2023-12-07T11:58:36;36.03;;;14.97;;
23044;SDS011;11690;51.716;23.066;2023-12-07T12:01:07;32.57;;;15.60;;
23044;SDS011;11690;51.716;23.066;2023-12-07T12:03:36;31.53;;;14.00;;
23044;SDS011;11690;51.716;23.066;2023-12-07T12:06:04;29.13;;;14.27;;
23044;SDS011;11690;51.716;23.066;2023-12-07T12:08:33;32.47;;;16.03;;
23044;SDS011;11690;51.716;23.066;2023-12-07T12:11:00;32.17;;;16.37;;
23044;SDS011;11690;51.716;23.066;2023-12-07T12:13:29;32.07;;;15.17;;
23044;SDS011;11690;51.716;23.066;2023-12-07T12:15:57;31.37;;;14.20;;
23044;SDS011;11690;51.716;23.066;2023-12-07T12:18:29;29.77;;;13.93;;
23044;SDS011;11690;51.716;23.066;2023-12-07T12:20:57;25.97;;;13.27;;
23044;SDS011;11690;51.716;23.066;2023-12-07T12:23:26;46.80;;;17.53;;
23044;SDS011;11690;51.716;23.066;2023-12-07T12:25:53;34.07;;;16.17;;
23044;SDS011;11690;51.716;23.066;2023-12-07T12:28:21;28.20;;;13.43;;
23044;SDS011;11690;51.716;23.066;2023-12-07T12:30:50;25.30;;;13.27;;
23044;SDS011;11690;51.716;23.066;2023-12-07T12:33:18;43.20;;;17.93;;
23044;SDS011;11690;51.716;23.066;2023-12-07T12:35:45;28.97;;;14.67;;
23044;SDS011;11690;51.716;23.066;2023-12-07T12:38:13;31.10;;;14.80;;
23044;SDS011;11690;51.716;23.066;2023-12-07T12:40:53;29.73;;;14.43;;
23044;SDS011;11690;51.716;23.066;2023-12-07T12:43:21;37.90;;;15.97;;
23044;SDS011;11690;51.716;23.066;2023-12-07T12:45:49;30.03;;;14.90;;
23044;SDS011;11690;51.716;23.066;2023-12-07T12:48:32;27.23;;;12.90;;
23044;SDS011;11690;51.716;23.066;2023-12-07T12:51:12;26.00;;;13.47;;
23044;SDS011;11690;51.716;23.066;2023-12-07T12:53:44;29.13;;;12.37;;
23044;SDS011;11690;51.716;23.066;2023-12-07T12:56:16;27.97;;;13.07;;
23044;SDS011;11690;51.716;23.066;2023-12-07T12:58:45;31.97;;;13.47;;
23044;SDS011;11690;51.716;23.066;2023-12-07T13:01:12;28.90;;;12.63;;
23044;SDS011;11690;51.716;23.066;2023-12-07T13:03:40;29.30;;;14.03;;
23044;SDS011;11690;51.716;23.066;2023-12-07T13:06:07;34.87;;;14.67;;
23044;SDS011;11690;51.716;23.066;2023-12-07T13:08:35;24.77;;;12.90;;
23044;SDS011;11690;51.716;23.066;2023-12-07T13:11:01;28.20;;;12.37;;
23044;SDS011;11690;51.716;23.066;2023-12-07T13:13:29;28.33;;;12.93;;
23044;SDS011;11690;51.716;23.066;2023-12-07T13:15:56;29.40;;;14.73;;
23044;SDS011;11690;51.716;23.066;2023-12-07T13:18:23;38.13;;;16.57;;
23044;SDS011;11690;51.716;23.066;2023-12-07T13:20:50;34.43;;;15.33;;
23044;SDS011;11690;51.716;23.066;2023-12-07T13:23:22;30.60;;;14.70;;
23044;SDS011;11690;51.716;23.066;2023-12-07T13:25:49;31.07;;;13.93;;
23044;SDS011;11690;51.716;23.066;2023-12-07T13:28:16;26.10;;;13.63;;
23044;SDS011;11690;51.716;23.066;2023-12-07T13:30:44;30.13;;;14.23;;
23044;SDS011;11690;51.716;23.066;2023-12-07T13:33:11;31.30;;;13.93;;
23044;SDS011;11690;51.716;23.066;2023-12-07T13:35:53;26.80;;;13.50;;
23044;SDS011;11690;51.716;23.066;2023-12-07T13:38:22;24.80;;;12.47;;
23044;SDS011;11690;51.716;23.066;2023-12-07T13:40:50;93.27;;;37.77;;
23044;SDS011;11690;51.716;23.066;2023-12-07T13:43:17;310.50;;;114.23;;
23044;SDS011;11690;51.716;23.066;2023-12-07T13:45:45;131.37;;;49.47;;
23044;SDS011;11690;51.716;23.066;2023-12-07T13:48:12;159.03;;;57.20;;
23044;SDS011;11690;51.716;23.066;2023-12-07T13:50:40;54.43;;;21.47;;
23044;SDS011;11690;51.716;23.066;2023-12-07T13:53:08;55.97;;;22.83;;
23044;SDS011;11690;51.716;23.066;2023-12-07T13:55:39;68.20;;;25.93;;
23044;SDS011;11690;51.716;23.066;2023-12-07T13:58:06;88.20;;;27.97;;
23044;SDS011;11690;51.716;23.066;2023-12-07T14:00:33;111.13;;;37.93;;
23044;SDS011;11690;51.716;23.066;2023-12-07T14:03:01;187.80;;;62.60;;
23044;SDS011;11690;51.716;23.066;2023-12-07T14:05:28;104.43;;;39.10;;
23044;SDS011;11690;51.716;23.066;2023-12-07T14:07:56;168.53;;;59.17;;
23044;SDS011;11690;51.716;23.066;2023-12-07T14:10:23;36.40;;;14.50;;
23044;SDS011;11690;51.716;23.066;2023-12-07T14:12:50;67.20;;;21.77;;
23044;SDS011;11690;51.716;23.066;2023-12-07T14:15:17;43.40;;;16.20;;
23044;SDS011;11690;51.716;23.066;2023-12-07T14:17:56;143.37;;;34.60;;
23044;SDS011;11690;51.716;23.066;2023-12-07T14:20:24;158.27;;;37.30;;
23044;SDS011;11690;51.716;23.066;2023-12-07T14:23:14;42.60;;;15.70;;